Time,TemperatureF,DewpointF,PressureIn,WindDirection,WindDirectionDegrees,WindSpeedMPH,WindSpeedGustMPH,Humidity,HourlyPrecipIn,Conditions,Clouds,dailyrainin,SoftwareType,DateUTC
2013-04-17 00:00:00,49.6,48.2,30.18,SW,224,7.0,15.0,95,0.01,,,0.01,meteohub,2013-04-17 04:00:00,
2013-04-17 00:05:00,49.8,48.4,30.17,WSW,243,10.0,15.0,95,0.01,,,0.00,meteohub,2013-04-17 04:05:00,
2013-04-17 00:10:00,50.0,48.6,30.17,SW,232,7.0,21.0,95,0.01,,,0.00,meteohub,2013-04-17 04:10:00,
2013-04-17 00:16:00,50.2,48.7,30.17,SSW,208,11.0,21.0,95,0.01,,,0.00,meteohub,2013-04-17 04:16:00,
2013-04-17 00:21:00,50.2,48.7,30.17,SSW,210,11.0,21.0,95,0.01,,,0.00,meteohub,2013-04-17 04:21:00,
2013-04-17 00:26:00,50.2,48.7,30.17,West,278,3.0,17.0,95,0.00,,,0.00,meteohub,2013-04-17 04:26:00,
2013-04-17 00:31:00,50.2,48.7,30.17,SW,217,9.0,17.0,95,0.00,,,0.00,meteohub,2013-04-17 04:31:00,
2013-04-17 00:36:00,49.8,48.4,30.17,SW,225,9.0,17.0,95,0.00,,,0.00,meteohub,2013-04-17 04:36:00,
2013-04-17 00:41:00,49.6,48.2,30.17,SSW,210,13.0,18.0,95,0.00,,,0.00,meteohub,2013-04-17 04:41:00,
2013-04-17 00:46:00,49.5,48.0,30.17,WSW,245,11.0,18.0,95,0.00,,,0.00,meteohub,2013-04-17 04:46:00,
2013-04-17 00:51:00,49.5,48.0,30.16,SSW,197,12.0,18.0,95,0.00,,,0.00,meteohub,2013-04-17 04:51:00,
2013-04-17 00:56:00,49.5,48.0,30.16,SW,224,8.0,17.0,95,0.00,,,0.00,meteohub,2013-04-17 04:56:00,
2013-04-17 01:01:00,49.5,48.0,30.16,SW,214,7.0,16.0,95,0.00,,,0.00,meteohub,2013-04-17 05:01:00,
2013-04-17 01:06:00,49.5,48.0,30.15,SW,226,7.0,15.0,95,0.00,,,0.00,meteohub,2013-04-17 05:06:00,
2013-04-17 01:11:00,49.5,48.0,30.16,SW,231,9.0,14.0,95,0.00,,,0.00,meteohub,2013-04-17 05:11:00,
2013-04-17 01:16:00,49.8,48.4,30.16,WSW,239,8.0,14.0,95,0.00,,,0.00,meteohub,2013-04-17 05:16:00,
2013-04-17 01:21:00,50.0,48.4,30.16,SW,231,8.0,16.0,94,0.00,,,0.00,meteohub,2013-04-17 05:21:00,
2013-04-17 01:26:00,50.2,48.6,30.16,SSW,207,7.0,16.0,94,0.00,,,0.00,meteohub,2013-04-17 05:26:00,
2013-04-17 01:31:00,50.2,48.6,30.15,SSE,165,7.0,15.0,94,0.00,,,0.00,meteohub,2013-04-17 05:31:00,
2013-04-17 01:36:00,50.4,48.9,30.16,WSW,249,9.0,17.0,95,0.01,,,0.01,meteohub,2013-04-17 05:36:00,
2013-04-17 01:41:00,50.5,48.9,30.15,SSW,203,6.0,17.0,94,0.01,,,0.01,meteohub,2013-04-17 05:41:00,
2013-04-17 01:46:00,50.5,48.9,30.15,SW,221,11.0,17.0,94,0.01,,,0.01,meteohub,2013-04-17 05:46:00,
2013-04-17 01:51:00,50.5,48.9,30.15,SSW,207,4.0,17.0,94,0.01,,,0.01,meteohub,2013-04-17 05:51:00,
2013-04-17 01:57:00,50.5,48.9,30.15,SW,233,6.0,17.0,94,0.01,,,0.01,meteohub,2013-04-17 05:57:00,
2013-04-17 02:02:00,50.7,49.1,30.15,West,270,10.0,16.0,94,0.01,,,0.01,meteohub,2013-04-17 06:02:00,
2013-04-17 02:07:00,50.9,49.3,30.15,WSW,248,14.0,18.0,94,0.01,,,0.01,meteohub,2013-04-17 06:07:00,
2013-04-17 02:12:00,51.1,49.5,30.14,SW,217,13.0,18.0,94,0.01,,,0.01,meteohub,2013-04-17 06:12:00,
2013-04-17 02:17:00,51.3,49.6,30.14,SSW,212,11.0,21.0,94,0.01,,,0.01,meteohub,2013-04-17 06:17:00,
2013-04-17 02:22:00,51.3,49.6,30.14,WSW,248,12.0,21.0,94,0.01,,,0.01,meteohub,2013-04-17 06:22:00,
2013-04-17 02:27:00,51.1,49.6,30.14,WSW,242,7.0,21.0,95,0.01,,,0.01,meteohub,2013-04-17 06:27:00,
2013-04-17 02:32:00,51.1,49.6,30.14,SW,231,8.0,24.0,95,0.02,,,0.02,meteohub,2013-04-17 06:32:00,
2013-04-17 02:37:00,51.1,49.6,30.14,SW,221,14.0,24.0,95,0.01,,,0.02,meteohub,2013-04-17 06:37:00,
2013-04-17 02:42:00,51.1,49.6,30.14,SW,224,9.0,24.0,95,0.01,,,0.02,meteohub,2013-04-17 06:42:00,
2013-04-17 02:47:00,50.9,49.5,30.14,WSW,242,9.0,18.0,95,0.01,,,0.02,meteohub,2013-04-17 06:47:00,
2013-04-17 02:52:00,50.7,49.3,30.14,WSW,248,5.0,18.0,95,0.01,,,0.02,meteohub,2013-04-17 06:52:00,
2013-04-17 02:57:00,50.7,49.3,30.14,SW,224,8.0,18.0,95,0.01,,,0.02,meteohub,2013-04-17 06:57:00,
2013-04-17 03:02:00,50.7,49.6,30.14,SW,217,6.0,18.0,96,0.01,,,0.02,meteohub,2013-04-17 07:02:00,
2013-04-17 03:07:00,50.7,49.6,30.14,SW,232,11.0,15.0,96,0.01,,,0.02,meteohub,2013-04-17 07:07:00,
2013-04-17 03:12:00,50.5,49.5,30.13,SW,215,7.0,14.0,96,0.01,,,0.02,meteohub,2013-04-17 07:12:00,
2013-04-17 03:17:00,50.5,49.5,30.13,WSW,245,7.0,14.0,96,0.01,,,0.02,meteohub,2013-04-17 07:17:00,
2013-04-17 03:22:00,50.4,49.3,30.13,SSW,212,8.0,14.0,96,0.01,,,0.02,meteohub,2013-04-17 07:22:00,
2013-04-17 03:27:00,50.4,49.3,30.13,SSW,212,5.0,14.0,96,0.01,,,0.02,meteohub,2013-04-17 07:27:00,
2013-04-17 03:32:00,50.2,49.1,30.14,SW,222,4.0,14.0,96,0.00,,,0.02,meteohub,2013-04-17 07:32:00,
2013-04-17 03:37:00,50.2,49.1,30.13,SW,231,5.0,14.0,96,0.00,,,0.02,meteohub,2013-04-17 07:37:00,
2013-04-17 03:42:00,50.0,48.9,30.13,SW,221,8.0,12.0,96,0.00,,,0.02,meteohub,2013-04-17 07:42:00,
2013-04-17 03:47:00,49.8,48.9,30.13,SSW,208,4.0,12.0,97,0.00,,,0.02,meteohub,2013-04-17 07:47:00,
2013-04-17 03:52:00,49.8,48.9,30.12,SSW,194,11.0,12.0,97,0.00,,,0.02,meteohub,2013-04-17 07:52:00,
2013-04-17 03:57:00,49.8,48.9,30.12,SW,215,12.0,13.0,97,0.00,,,0.02,meteohub,2013-04-17 07:57:00,
2013-04-17 04:02:00,49.6,48.7,30.13,West,279,2.0,13.0,97,0.00,,,0.02,meteohub,2013-04-17 08:02:00,
2013-04-17 04:07:00,49.8,48.9,30.14,WNW,293,4.0,13.0,97,0.00,,,0.02,meteohub,2013-04-17 08:07:00,
2013-04-17 04:12:00,50.2,49.6,30.14,NW,308,4.0,12.0,98,0.00,,,0.02,meteohub,2013-04-17 08:12:00,
2013-04-17 04:17:00,50.5,50.0,30.14,SW,215,1.0,6.0,98,0.00,,,0.02,meteohub,2013-04-17 08:17:00,
2013-04-17 04:22:00,50.9,50.4,30.13,SSW,195,6.0,6.0,98,0.00,,,0.02,meteohub,2013-04-17 08:22:00,
2013-04-17 04:27:00,51.1,50.2,30.14,SSW,201,6.0,7.0,97,0.00,,,0.02,meteohub,2013-04-17 08:27:00,
2013-04-17 04:32:00,51.1,50.2,30.13,SSW,201,5.0,7.0,97,0.00,,,0.02,meteohub,2013-04-17 08:32:00,
2013-04-17 04:37:00,50.7,49.8,30.14,SSW,211,6.0,7.0,97,0.00,,,0.02,meteohub,2013-04-17 08:37:00,
2013-04-17 04:42:00,50.7,49.8,30.14,South,184,7.0,7.0,97,0.00,,,0.02,meteohub,2013-04-17 08:42:00,
2013-04-17 04:47:00,50.4,49.5,30.13,SSW,200,6.0,7.0,97,0.00,,,0.02,meteohub,2013-04-17 08:47:00,
2013-04-17 04:52:00,50.5,49.6,30.13,South,190,5.0,7.0,97,0.00,,,0.02,meteohub,2013-04-17 08:52:00,
2013-04-17 04:57:00,50.5,50.0,30.13,South,180,5.0,7.0,98,0.00,,,0.02,meteohub,2013-04-17 08:57:00,
2013-04-17 05:02:00,50.5,50.0,30.13,SSW,201,6.0,7.0,98,0.00,,,0.02,meteohub,2013-04-17 09:02:00,
2013-04-17 05:07:00,50.7,50.2,30.13,South,190,5.0,9.0,98,0.00,,,0.02,meteohub,2013-04-17 09:07:00,
2013-04-17 05:12:00,50.7,50.2,30.13,South,174,3.0,9.0,98,0.00,,,0.02,meteohub,2013-04-17 09:12:00,
2013-04-17 05:17:00,50.9,50.4,30.13,SSW,197,3.0,9.0,98,0.00,,,0.02,meteohub,2013-04-17 09:17:00,
2013-04-17 05:22:00,51.1,50.5,30.13,South,179,3.0,9.0,98,0.00,,,0.02,meteohub,2013-04-17 09:22:00,
2013-04-17 05:27:00,51.3,50.7,30.13,SSW,208,3.0,5.0,98,0.00,,,0.02,meteohub,2013-04-17 09:27:00,
2013-04-17 05:32:00,51.3,50.7,30.13,SSW,210,2.0,5.0,98,0.00,,,0.02,meteohub,2013-04-17 09:32:00,
2013-04-17 05:37:00,51.4,50.9,30.13,SSW,210,0.0,4.0,98,0.00,,,0.02,meteohub,2013-04-17 09:37:00,
2013-04-17 05:42:00,51.4,50.9,30.13,SSW,204,1.0,4.0,98,0.00,,,0.02,meteohub,2013-04-17 09:42:00,
2013-04-17 05:47:00,51.4,50.9,30.13,SW,231,0.0,2.0,98,0.00,,,0.02,meteohub,2013-04-17 09:47:00,
2013-04-17 05:52:00,51.4,50.9,30.14,SSW,210,2.0,2.0,98,0.00,,,0.02,meteohub,2013-04-17 09:52:00,
2013-04-17 05:57:00,51.6,51.1,30.14,WSW,255,0.0,3.0,98,0.00,,,0.02,meteohub,2013-04-17 09:57:00,
2013-04-17 06:02:00,52.0,51.4,30.14,SSE,152,0.0,3.0,98,0.00,,,0.02,meteohub,2013-04-17 10:02:00,
2013-04-17 06:07:00,51.4,50.5,30.13,SE,127,0.0,3.0,97,0.00,,,0.02,meteohub,2013-04-17 10:07:00,
2013-04-17 06:12:00,51.3,50.7,30.12,SSE,155,0.0,4.0,98,0.00,,,0.02,meteohub,2013-04-17 10:12:00,
2013-04-17 06:17:00,51.3,50.7,30.13,SSW,198,4.0,4.0,98,0.00,,,0.02,meteohub,2013-04-17 10:17:00,
2013-04-17 06:22:00,51.1,50.5,30.14,SW,236,0.0,4.0,98,0.00,,,0.02,meteohub,2013-04-17 10:22:00,
2013-04-17 06:27:00,50.9,50.4,30.14,WSW,242,1.0,4.0,98,0.00,,,0.02,meteohub,2013-04-17 10:27:00,
2013-04-17 06:32:00,50.4,49.5,30.14,SSW,204,4.0,4.0,97,0.00,,,0.02,meteohub,2013-04-17 10:32:00,
2013-04-17 06:37:00,49.8,48.9,30.14,SSW,212,3.0,5.0,97,0.00,,,0.02,meteohub,2013-04-17 10:37:00,
2013-04-17 06:42:00,49.8,49.3,30.14,South,180,4.0,5.0,98,0.00,,,0.02,meteohub,2013-04-17 10:42:00,
2013-04-17 06:47:00,49.6,49.1,30.14,SSW,193,2.0,5.0,98,0.00,,,0.02,meteohub,2013-04-17 10:47:00,
2013-04-17 06:52:00,49.6,49.1,30.15,South,188,2.0,4.0,98,0.00,,,0.02,meteohub,2013-04-17 10:52:00,
2013-04-17 06:57:00,49.6,49.1,30.15,SSW,204,0.0,4.0,98,0.00,,,0.02,meteohub,2013-04-17 10:57:00,
2013-04-17 07:02:00,49.8,49.3,30.15,SSW,204,0.0,3.0,98,0.00,,,0.02,meteohub,2013-04-17 11:02:00,
2013-04-17 07:07:00,50.0,49.5,30.16,SSW,203,1.0,2.0,98,0.00,,,0.02,meteohub,2013-04-17 11:07:00,
2013-04-17 07:12:00,50.2,49.6,30.16,South,186,0.0,2.0,98,0.00,,,0.02,meteohub,2013-04-17 11:12:00,
2013-04-17 07:17:00,50.2,49.6,30.16,West,269,0.0,2.0,98,0.00,,,0.02,meteohub,2013-04-17 11:17:00,
2013-04-17 07:22:00,50.5,50.0,30.17,NW,318,3.0,3.0,98,0.00,,,0.02,meteohub,2013-04-17 11:22:00,
2013-04-17 07:27:00,51.4,49.5,30.17,WNW,288,1.0,4.0,93,0.00,,,0.02,meteohub,2013-04-17 11:27:00,
2013-04-17 07:32:00,52.0,48.2,30.17,NW,310,1.0,4.0,87,0.00,,,0.02,meteohub,2013-04-17 11:32:00,
2013-04-17 07:37:00,52.5,47.8,30.17,West,278,2.0,4.0,84,0.00,,,0.02,meteohub,2013-04-17 11:37:00,
2013-04-17 07:42:00,52.9,46.9,30.17,NW,305,3.0,5.0,80,0.00,,,0.02,meteohub,2013-04-17 11:42:00,
2013-04-17 07:47:00,53.1,46.8,30.17,NW,323,4.0,6.0,79,0.00,,,0.02,meteohub,2013-04-17 11:47:00,
2013-04-17 07:52:00,53.4,46.4,30.17,NW,312,3.0,6.0,77,0.00,,,0.02,meteohub,2013-04-17 11:52:00,
2013-04-17 07:57:00,53.4,46.0,30.17,NW,321,3.0,6.0,76,0.00,,,0.02,meteohub,2013-04-17 11:57:00,
2013-04-17 08:02:00,53.8,45.7,30.17,NW,319,4.0,5.0,74,0.00,,,0.02,meteohub,2013-04-17 12:02:00,
2013-04-17 08:08:00,53.8,45.7,30.17,WNW,295,6.0,6.0,74,0.00,,,0.02,meteohub,2013-04-17 12:08:00,
2013-04-17 08:13:00,54.0,45.5,30.17,NW,305,6.0,7.0,73,0.00,,,0.02,meteohub,2013-04-17 12:13:00,
2013-04-17 08:18:00,54.1,45.7,30.18,NW,307,6.0,9.0,73,0.00,,,0.02,meteohub,2013-04-17 12:18:00,
2013-04-17 08:23:00,54.1,45.0,30.17,North,11,4.0,9.0,71,0.00,,,0.02,meteohub,2013-04-17 12:23:00,
2013-04-17 08:28:00,54.3,45.1,30.18,NW,307,6.0,9.0,71,0.00,,,0.02,meteohub,2013-04-17 12:28:00,
2013-04-17 08:33:00,54.5,45.3,30.18,NNW,340,6.0,9.0,71,0.00,,,0.02,meteohub,2013-04-17 12:33:00,
2013-04-17 08:38:00,54.7,45.5,30.18,WNW,297,2.0,9.0,71,0.00,,,0.02,meteohub,2013-04-17 12:38:00,
2013-04-17 08:43:00,54.7,44.8,30.18,WNW,302,10.0,10.0,69,0.00,,,0.02,meteohub,2013-04-17 12:43:00,
2013-04-17 08:48:00,55.0,45.5,30.18,NNW,342,9.0,12.0,70,0.00,,,0.02,meteohub,2013-04-17 12:48:00,
2013-04-17 08:53:00,55.4,45.0,30.19,NW,310,7.0,12.0,68,0.00,,,0.02,meteohub,2013-04-17 12:53:00,
2013-04-17 08:58:00,55.4,44.6,30.19,NNW,340,5.0,12.0,67,0.00,,,0.02,meteohub,2013-04-17 12:58:00,
2013-04-17 09:03:00,55.6,45.1,30.19,NNW,336,2.0,13.0,68,0.00,,,0.02,meteohub,2013-04-17 13:03:00,
2013-04-17 09:08:00,55.8,45.3,30.19,NW,317,5.0,13.0,68,0.00,,,0.02,meteohub,2013-04-17 13:08:00,
2013-04-17 09:13:00,55.8,44.6,30.19,NNE,18,4.0,13.0,66,0.00,,,0.02,meteohub,2013-04-17 13:13:00,
2013-04-17 09:18:00,56.1,45.0,30.19,North,356,9.0,12.0,66,0.00,,,0.02,meteohub,2013-04-17 13:18:00,
2013-04-17 09:23:00,56.3,45.1,30.19,NNW,340,6.0,12.0,66,0.00,,,0.02,meteohub,2013-04-17 13:23:00,
2013-04-17 09:28:00,56.1,45.0,30.19,NNW,330,2.0,11.0,66,0.00,,,0.02,meteohub,2013-04-17 13:28:00,
2013-04-17 09:33:00,56.7,45.0,30.19,WNW,297,9.0,12.0,65,0.00,,,0.02,meteohub,2013-04-17 13:33:00,
2013-04-17 09:38:00,57.4,45.3,30.19,WNW,283,7.0,12.0,64,0.00,,,0.02,meteohub,2013-04-17 13:38:00,
2013-04-17 09:43:00,57.6,45.5,30.19,NNW,342,5.0,12.0,64,0.00,,,0.02,meteohub,2013-04-17 13:43:00,
2013-04-17 09:48:00,57.9,45.9,30.19,NNE,13,0.0,10.0,64,0.00,,,0.02,meteohub,2013-04-17 13:48:00,
2013-04-17 09:53:00,58.6,45.7,30.19,NNW,332,9.0,9.0,62,0.00,,,0.02,meteohub,2013-04-17 13:53:00,
2013-04-17 09:58:00,57.7,44.4,30.19,NNW,330,5.0,11.0,61,0.00,,,0.02,meteohub,2013-04-17 13:58:00,
2013-04-17 10:03:00,57.7,44.8,30.19,NNW,333,6.0,11.0,62,0.00,,,0.02,meteohub,2013-04-17 14:03:00,
2013-04-17 10:08:00,57.9,44.6,30.20,North,352,5.0,12.0,61,0.00,,,0.02,meteohub,2013-04-17 14:08:00,
2013-04-17 10:13:00,58.3,44.4,30.20,NNW,337,5.0,12.0,60,0.00,,,0.02,meteohub,2013-04-17 14:13:00,
2013-04-17 10:18:00,58.5,44.2,30.20,NW,323,5.0,12.0,59,0.00,,,0.02,meteohub,2013-04-17 14:18:00,
2013-04-17 10:23:00,58.6,44.4,30.20,NW,325,7.0,12.0,59,0.00,,,0.02,meteohub,2013-04-17 14:23:00,
2013-04-17 10:28:00,59.0,43.3,30.20,NNW,333,4.0,13.0,56,0.00,,,0.02,meteohub,2013-04-17 14:28:00,
2013-04-17 10:33:00,59.4,43.7,30.20,NW,315,4.0,16.0,56,0.00,,,0.02,meteohub,2013-04-17 14:33:00,
2013-04-17 10:38:00,59.7,44.1,30.20,NNE,20,4.0,16.0,56,0.00,,,0.02,meteohub,2013-04-17 14:38:00,
2013-04-17 10:43:00,60.1,43.9,30.19,NNW,347,4.0,16.0,55,0.00,,,0.02,meteohub,2013-04-17 14:43:00,
2013-04-17 10:48:00,60.4,44.2,30.19,NW,314,6.0,11.0,55,0.00,,,0.02,meteohub,2013-04-17 14:48:00,
2013-04-17 10:53:00,60.4,43.2,30.19,NNW,330,7.0,11.0,53,0.00,,,0.02,meteohub,2013-04-17 14:53:00,
2013-04-17 10:58:00,61.2,44.4,30.19,NE,34,4.0,10.0,54,0.00,,,0.02,meteohub,2013-04-17 14:58:00,
2013-04-17 11:03:00,61.3,44.1,30.19,North,6,2.0,10.0,53,0.00,,,0.02,meteohub,2013-04-17 15:03:00,
2013-04-17 11:09:00,61.3,43.5,30.20,North,356,3.0,10.0,52,0.00,,,0.02,meteohub,2013-04-17 15:09:00,
2013-04-17 11:14:00,61.5,43.2,30.19,NNW,339,6.0,11.0,51,0.00,,,0.02,meteohub,2013-04-17 15:14:00,
2013-04-17 11:19:00,62.1,44.2,30.19,NE,54,6.0,11.0,52,0.00,,,0.02,meteohub,2013-04-17 15:19:00,
2013-04-17 11:24:00,62.1,43.7,30.19,NNW,330,3.0,9.0,51,0.00,,,0.02,meteohub,2013-04-17 15:24:00,
2013-04-17 11:29:00,62.2,44.4,30.19,NNW,342,8.0,11.0,52,0.00,,,0.02,meteohub,2013-04-17 15:29:00,
2013-04-17 11:34:00,62.4,43.0,30.19,NW,325,2.0,11.0,49,0.00,,,0.02,meteohub,2013-04-17 15:34:00,
2013-04-17 11:39:00,62.8,43.9,30.19,NNW,340,1.0,11.0,50,0.00,,,0.02,meteohub,2013-04-17 15:39:00,
2013-04-17 11:44:00,63.1,42.1,30.19,NNE,25,0.0,10.0,46,0.00,,,0.02,meteohub,2013-04-17 15:44:00,
2013-04-17 11:49:00,63.1,43.2,30.18,North,352,4.0,12.0,48,0.00,,,0.02,meteohub,2013-04-17 15:49:00,
2013-04-17 11:54:00,63.7,45.1,30.18,East,93,7.0,12.0,51,0.00,,,0.02,meteohub,2013-04-17 15:54:00,
2013-04-17 11:59:00,62.4,44.6,30.18,SE,128,8.0,12.0,52,0.00,,,0.02,meteohub,2013-04-17 15:59:00,
2013-04-17 12:04:00,62.2,45.0,30.18,West,269,1.0,11.0,53,0.00,,,0.02,meteohub,2013-04-17 16:04:00,
2013-04-17 12:09:00,62.1,45.7,30.17,South,171,7.0,11.0,55,0.00,,,0.02,meteohub,2013-04-17 16:09:00,
2013-04-17 12:14:00,61.3,45.5,30.18,ESE,122,7.0,13.0,56,0.00,,,0.02,meteohub,2013-04-17 16:14:00,
2013-04-17 12:19:00,61.5,45.7,30.18,North,352,0.0,13.0,56,0.00,,,0.02,meteohub,2013-04-17 16:19:00,
2013-04-17 12:24:00,62.4,46.0,30.18,SE,132,2.0,13.0,55,0.00,,,0.02,meteohub,2013-04-17 16:24:00,
2013-04-17 12:29:00,62.6,45.7,30.18,SSE,167,4.0,10.0,54,0.00,,,0.02,meteohub,2013-04-17 16:29:00,
2013-04-17 12:34:00,62.4,45.5,30.18,ESE,108,8.0,9.0,54,0.00,,,0.02,meteohub,2013-04-17 16:34:00,
2013-04-17 12:39:00,62.1,43.7,30.18,ESE,116,7.0,9.0,51,0.00,,,0.02,meteohub,2013-04-17 16:39:00,
2013-04-17 12:44:00,62.2,44.4,30.18,SSW,207,2.0,10.0,52,0.00,,,0.02,meteohub,2013-04-17 16:44:00,
2013-04-17 12:49:00,62.6,45.1,30.18,SSW,207,4.0,10.0,53,0.00,,,0.02,meteohub,2013-04-17 16:49:00,
2013-04-17 12:54:00,62.4,47.5,30.18,South,190,8.0,10.0,58,0.00,,,0.02,meteohub,2013-04-17 16:54:00,
2013-04-17 12:59:00,61.0,47.5,30.18,SSW,198,9.0,15.0,61,0.00,,,0.02,meteohub,2013-04-17 16:59:00,
2013-04-17 13:04:00,60.6,46.2,30.18,SW,219,9.0,15.0,59,0.00,,,0.02,meteohub,2013-04-17 17:04:00,
2013-04-17 13:09:00,60.4,46.9,30.18,SSW,203,9.0,15.0,61,0.00,,,0.02,meteohub,2013-04-17 17:09:00,
2013-04-17 13:14:00,59.7,46.8,30.17,SW,228,9.0,13.0,62,0.00,,,0.02,meteohub,2013-04-17 17:14:00,
2013-04-17 13:19:00,59.2,46.9,30.17,SSW,195,9.0,13.0,64,0.00,,,0.02,meteohub,2013-04-17 17:19:00,
2013-04-17 13:24:00,58.6,46.0,30.18,SSW,210,13.0,16.0,63,0.00,,,0.02,meteohub,2013-04-17 17:24:00,
2013-04-17 13:29:00,58.5,45.9,30.18,SW,230,9.0,17.0,63,0.00,,,0.02,meteohub,2013-04-17 17:29:00,
2013-04-17 13:34:00,58.3,45.3,30.18,SSW,210,13.0,17.0,62,0.00,,,0.02,meteohub,2013-04-17 17:34:00,
2013-04-17 13:39:00,58.1,45.1,30.17,SSW,210,13.0,17.0,62,0.00,,,0.02,meteohub,2013-04-17 17:39:00,
2013-04-17 13:44:00,57.9,45.9,30.17,SSW,194,10.0,16.0,64,0.00,,,0.02,meteohub,2013-04-17 17:44:00,
2013-04-17 13:49:00,57.9,45.3,30.18,SW,215,9.0,16.0,63,0.00,,,0.02,meteohub,2013-04-17 17:49:00,
2013-04-17 13:54:00,58.5,45.9,30.18,SSW,203,12.0,16.0,63,0.00,,,0.02,meteohub,2013-04-17 17:54:00,
2013-04-17 13:59:00,58.5,45.5,30.18,South,188,10.0,16.0,62,0.00,,,0.02,meteohub,2013-04-17 17:59:00,
2013-04-17 14:04:00,58.5,46.8,30.18,South,191,11.0,14.0,65,0.00,,,0.02,meteohub,2013-04-17 18:04:00,
2013-04-17 14:09:00,58.5,46.4,30.19,SSW,200,11.0,14.0,64,0.00,,,0.02,meteohub,2013-04-17 18:09:00,
2013-04-17 14:14:00,58.5,46.4,30.19,South,188,9.0,14.0,64,0.00,,,0.02,meteohub,2013-04-17 18:14:00,
2013-04-17 14:19:00,58.5,46.8,30.18,South,191,11.0,13.0,65,0.00,,,0.02,meteohub,2013-04-17 18:19:00,
2013-04-17 14:24:00,58.5,46.4,30.18,SSW,195,9.0,13.0,64,0.00,,,0.02,meteohub,2013-04-17 18:24:00,
2013-04-17 14:29:00,58.5,45.9,30.18,SSW,198,10.0,12.0,63,0.00,,,0.02,meteohub,2013-04-17 18:29:00,
2013-04-17 14:34:00,58.6,46.0,30.18,SSW,194,11.0,12.0,63,0.00,,,0.02,meteohub,2013-04-17 18:34:00,
2013-04-17 14:39:00,58.8,47.1,30.19,South,180,12.0,14.0,65,0.00,,,0.02,meteohub,2013-04-17 18:39:00,
2013-04-17 14:44:00,58.8,47.1,30.19,South,180,8.0,14.0,65,0.00,,,0.02,meteohub,2013-04-17 18:44:00,
2013-04-17 14:49:00,58.6,47.3,30.19,South,187,9.0,14.0,66,0.00,,,0.02,meteohub,2013-04-17 18:49:00,
2013-04-17 14:54:00,58.5,47.1,30.19,SSW,201,9.0,12.0,66,0.00,,,0.02,meteohub,2013-04-17 18:54:00,
2013-04-17 14:59:00,58.5,47.1,30.19,SSE,167,7.0,13.0,66,0.00,,,0.02,meteohub,2013-04-17 18:59:00,
2013-04-17 15:04:00,58.5,47.1,30.19,SSW,197,10.0,13.0,66,0.00,,,0.02,meteohub,2013-04-17 19:04:00,
2013-04-17 15:10:00,58.6,46.9,30.19,South,184,8.0,13.0,65,0.00,,,0.02,meteohub,2013-04-17 19:10:00,
2013-04-17 15:15:00,58.5,46.8,30.19,SSW,193,11.0,13.0,65,0.00,,,0.02,meteohub,2013-04-17 19:15:00,
2013-04-17 15:19:00,58.5,46.4,30.19,SSW,204,10.0,13.0,64,0.00,,,0.02,meteohub,2013-04-17 19:19:00,
2013-04-17 15:25:00,58.6,46.0,30.19,South,179,7.0,12.0,63,0.00,,,0.02,meteohub,2013-04-17 19:25:00,
2013-04-17 15:30:00,58.8,46.6,30.19,South,188,9.0,12.0,64,0.00,,,0.02,meteohub,2013-04-17 19:30:00,
2013-04-17 15:35:00,58.8,46.2,30.19,South,177,9.0,12.0,63,0.00,,,0.02,meteohub,2013-04-17 19:35:00,
2013-04-17 15:40:00,58.6,47.3,30.19,South,176,9.0,12.0,66,0.00,,,0.02,meteohub,2013-04-17 19:40:00,
2013-04-17 15:45:00,58.8,46.6,30.19,South,186,11.0,12.0,64,0.00,,,0.02,meteohub,2013-04-17 19:45:00,
2013-04-17 15:50:00,58.6,46.0,30.19,South,181,10.0,13.0,63,0.00,,,0.02,meteohub,2013-04-17 19:50:00,
2013-04-17 15:55:00,58.5,46.4,30.20,SSW,201,11.0,13.0,64,0.00,,,0.02,meteohub,2013-04-17 19:55:00,
2013-04-17 16:00:00,58.5,45.9,30.20,South,179,11.0,13.0,63,0.00,,,0.02,meteohub,2013-04-17 20:00:00,
2013-04-17 16:05:00,58.3,45.7,30.20,SSW,210,10.0,12.0,63,0.00,,,0.02,meteohub,2013-04-17 20:05:00,
2013-04-17 16:10:00,58.5,46.4,30.19,South,188,9.0,15.0,64,0.00,,,0.02,meteohub,2013-04-17 20:10:00,
2013-04-17 16:15:00,58.8,47.1,30.20,SSW,207,9.0,15.0,65,0.00,,,0.02,meteohub,2013-04-17 20:15:00,
2013-04-17 16:20:00,58.6,46.6,30.20,SW,215,10.0,15.0,64,0.00,,,0.02,meteohub,2013-04-17 20:20:00,
2013-04-17 16:25:00,57.9,45.9,30.21,SSW,207,9.0,12.0,64,0.00,,,0.02,meteohub,2013-04-17 20:25:00,
2013-04-17 16:30:00,57.6,46.2,30.21,SSW,207,11.0,13.0,66,0.00,,,0.02,meteohub,2013-04-17 20:30:00,
2013-04-17 16:35:00,57.7,46.0,30.21,South,174,7.0,13.0,65,0.00,,,0.02,meteohub,2013-04-17 20:35:00,
2013-04-17 16:40:00,58.3,46.2,30.21,SSW,205,7.0,13.0,64,0.00,,,0.02,meteohub,2013-04-17 20:40:00,
2013-04-17 16:45:00,58.5,46.8,30.21,SSE,160,4.0,13.0,65,0.00,,,0.02,meteohub,2013-04-17 20:45:00,
2013-04-17 16:50:00,58.3,46.2,30.21,South,170,11.0,12.0,64,0.00,,,0.02,meteohub,2013-04-17 20:50:00,
2013-04-17 16:55:00,57.9,45.3,30.21,SSW,210,10.0,12.0,63,0.00,,,0.02,meteohub,2013-04-17 20:55:00,
2013-04-17 17:00:00,57.7,47.3,30.22,SSE,155,7.0,12.0,68,0.00,,,0.02,meteohub,2013-04-17 21:00:00,
2013-04-17 17:05:00,57.2,46.4,30.22,SSW,210,5.0,13.0,67,0.00,,,0.02,meteohub,2013-04-17 21:05:00,
2013-04-17 17:10:00,56.7,45.9,30.22,South,183,11.0,13.0,67,0.00,,,0.02,meteohub,2013-04-17 21:10:00,
2013-04-17 17:15:00,56.5,46.0,30.22,SSW,197,7.0,14.0,68,0.00,,,0.02,meteohub,2013-04-17 21:15:00,
2013-04-17 17:20:00,55.9,45.5,30.22,South,184,12.0,14.0,68,0.00,,,0.02,meteohub,2013-04-17 21:20:00,
2013-04-17 17:25:00,55.6,45.5,30.22,SSW,198,7.0,14.0,69,0.00,,,0.02,meteohub,2013-04-17 21:25:00,
2013-04-17 17:30:00,55.8,45.3,30.22,South,173,5.0,14.0,68,0.00,,,0.02,meteohub,2013-04-17 21:30:00,
2013-04-17 17:35:00,55.6,44.4,30.23,SSW,197,7.0,14.0,66,0.00,,,0.02,meteohub,2013-04-17 21:35:00,
2013-04-17 17:40:00,55.2,44.4,30.24,SSE,153,7.0,13.0,67,0.00,,,0.02,meteohub,2013-04-17 21:40:00,
2013-04-17 17:45:00,55.0,45.5,30.24,SSW,201,7.0,13.0,70,0.00,,,0.02,meteohub,2013-04-17 21:45:00,
2013-04-17 17:50:00,54.7,45.5,30.24,South,177,8.0,13.0,71,0.00,,,0.02,meteohub,2013-04-17 21:50:00,
2013-04-17 17:55:00,54.3,45.5,30.24,SE,136,5.0,13.0,72,0.00,,,0.02,meteohub,2013-04-17 21:55:00,
2013-04-17 18:00:00,54.1,46.0,30.25,South,183,7.0,13.0,74,0.00,,,0.02,meteohub,2013-04-17 22:00:00,
2013-04-17 18:05:00,53.8,45.0,30.25,South,184,5.0,13.0,72,0.00,,,0.02,meteohub,2013-04-17 22:05:00,
2013-04-17 18:10:00,53.4,44.2,30.25,SSW,201,11.0,13.0,71,0.00,,,0.02,meteohub,2013-04-17 22:10:00,
2013-04-17 18:15:00,53.1,43.5,30.25,SSW,207,8.0,14.0,70,0.00,,,0.02,meteohub,2013-04-17 22:15:00,
2013-04-17 18:20:00,53.1,43.9,30.26,SSW,212,5.0,14.0,71,0.00,,,0.02,meteohub,2013-04-17 22:20:00,
2013-04-17 18:25:00,53.2,44.1,30.26,SSW,207,8.0,14.0,71,0.00,,,0.02,meteohub,2013-04-17 22:25:00,
2013-04-17 18:30:00,52.9,44.1,30.26,SW,215,12.0,14.0,72,0.00,,,0.02,meteohub,2013-04-17 22:30:00,
2013-04-17 18:35:00,52.3,44.2,30.26,SW,229,9.0,13.0,74,0.00,,,0.02,meteohub,2013-04-17 22:35:00,
2013-04-17 18:40:00,52.3,44.2,30.26,South,176,8.0,13.0,74,0.00,,,0.02,meteohub,2013-04-17 22:40:00,
2013-04-17 18:45:00,52.0,43.9,30.27,SSW,204,7.0,13.0,74,0.00,,,0.02,meteohub,2013-04-17 22:45:00,
2013-04-17 18:50:00,52.0,43.9,30.27,SSW,201,5.0,12.0,74,0.00,,,0.02,meteohub,2013-04-17 22:50:00,
2013-04-17 18:56:00,51.6,43.9,30.27,South,186,6.0,12.0,75,0.00,,,0.02,meteohub,2013-04-17 22:56:00,
2013-04-17 19:01:00,51.6,44.2,30.27,South,182,8.0,10.0,76,0.00,,,0.02,meteohub,2013-04-17 23:01:00,
2013-04-17 19:06:00,51.4,44.4,30.27,SSW,200,4.0,10.0,77,0.00,,,0.02,meteohub,2013-04-17 23:06:00,
2013-04-17 19:11:00,50.9,43.5,30.27,SSW,205,6.0,10.0,76,0.00,,,0.02,meteohub,2013-04-17 23:11:00,
2013-04-17 19:16:00,50.7,44.1,30.28,SSW,195,3.0,10.0,78,0.00,,,0.02,meteohub,2013-04-17 23:16:00,
2013-04-17 19:21:00,50.4,43.7,30.28,SSE,162,1.0,10.0,78,0.00,,,0.02,meteohub,2013-04-17 23:21:00,
2013-04-17 19:26:00,50.2,43.5,30.28,South,181,4.0,10.0,78,0.00,,,0.02,meteohub,2013-04-17 23:26:00,
2013-04-17 19:31:00,49.8,43.0,30.28,SSE,167,3.0,6.0,77,0.00,,,0.02,meteohub,2013-04-17 23:31:00,
2013-04-17 19:36:00,49.6,43.3,30.29,SSE,158,2.0,6.0,79,0.00,,,0.02,meteohub,2013-04-17 23:36:00,
2013-04-17 19:42:00,49.3,42.8,30.29,SE,131,3.0,6.0,78,0.00,,,0.02,meteohub,2013-04-17 23:42:00,
2013-04-17 19:47:00,49.1,42.6,30.29,South,187,4.0,6.0,78,0.00,,,0.02,meteohub,2013-04-17 23:47:00,
2013-04-17 19:52:00,48.7,42.3,30.29,SSW,207,2.0,6.0,78,0.00,,,0.02,meteohub,2013-04-17 23:52:00,
2013-04-17 19:57:00,48.7,42.8,30.30,South,169,5.0,6.0,80,0.00,,,0.02,meteohub,2013-04-17 23:57:00,
2013-04-17 20:02:00,48.9,42.6,30.30,SSE,158,8.0,8.0,79,0.00,,,0.02,meteohub,2013-04-18 00:02:00,
2013-04-17 20:07:00,48.9,43.3,30.30,SSW,205,3.0,8.0,81,0.00,,,0.02,meteohub,2013-04-18 00:07:00,
2013-04-17 20:12:00,48.9,42.6,30.31,SSW,200,5.0,8.0,79,0.00,,,0.02,meteohub,2013-04-18 00:12:00,
2013-04-17 20:17:00,48.7,42.8,30.31,SSW,204,7.0,8.0,80,0.00,,,0.02,meteohub,2013-04-18 00:17:00,
2013-04-17 20:22:00,48.9,43.3,30.31,SSW,207,7.0,7.0,81,0.00,,,0.02,meteohub,2013-04-18 00:22:00,
2013-04-17 20:27:00,48.7,42.4,30.31,SSW,200,6.0,8.0,79,0.00,,,0.02,meteohub,2013-04-18 00:27:00,
2013-04-17 20:32:00,48.7,42.8,30.32,South,190,6.0,8.0,80,0.00,,,0.02,meteohub,2013-04-18 00:32:00,
2013-04-17 20:37:00,48.7,43.2,30.32,SSW,198,0.0,8.0,81,0.00,,,0.02,meteohub,2013-04-18 00:37:00,
2013-04-17 20:42:00,48.6,42.6,30.32,SW,218,3.0,8.0,80,0.00,,,0.02,meteohub,2013-04-18 00:42:00,
2013-04-17 20:47:00,48.6,42.6,30.32,SE,145,1.0,7.0,80,0.00,,,0.02,meteohub,2013-04-18 00:47:00,
2013-04-17 20:52:00,48.4,42.3,30.32,South,179,3.0,4.0,79,0.00,,,0.02,meteohub,2013-04-18 00:52:00,
2013-04-17 20:57:00,48.0,41.9,30.32,SSE,155,2.0,5.0,79,0.00,,,0.02,meteohub,2013-04-18 00:57:00,
2013-04-17 21:02:00,47.8,41.9,30.32,SE,126,2.0,5.0,80,0.00,,,0.02,meteohub,2013-04-18 01:02:00,
2013-04-17 21:07:00,47.5,41.5,30.32,SSE,160,2.0,5.0,80,0.00,,,0.02,meteohub,2013-04-18 01:07:00,
2013-04-17 21:12:00,47.3,42.1,30.32,ESE,120,1.0,4.0,82,0.00,,,0.02,meteohub,2013-04-18 01:12:00,
2013-04-17 21:17:00,46.9,41.7,30.32,SE,126,0.0,3.0,82,0.00,,,0.02,meteohub,2013-04-18 01:17:00,
2013-04-17 21:22:00,46.8,41.5,30.32,ESE,110,1.0,2.0,82,0.00,,,0.02,meteohub,2013-04-18 01:22:00,
2013-04-17 21:27:00,46.6,42.1,30.32,South,177,0.0,1.0,84,0.00,,,0.02,meteohub,2013-04-18 01:27:00,
2013-04-17 21:32:00,46.0,41.5,30.32,East,94,0.0,1.0,84,0.00,,,0.02,meteohub,2013-04-18 01:32:00,
2013-04-17 21:37:00,46.4,41.5,30.33,ENE,60,1.0,1.0,83,0.00,,,0.02,meteohub,2013-04-18 01:37:00,
2013-04-17 21:41:00,46.2,41.4,30.33,NE,45,0.0,2.0,83,0.00,,,0.02,meteohub,2013-04-18 01:41:00,
2013-04-17 21:46:00,46.0,41.2,30.33,NE,46,0.0,2.0,83,0.00,,,0.02,meteohub,2013-04-18 01:46:00,
2013-04-17 21:51:00,46.0,41.2,30.33,NNW,330,0.0,2.0,83,0.00,,,0.02,meteohub,2013-04-18 01:51:00,
2013-04-17 21:56:00,46.0,41.5,30.33,NNW,330,0.0,1.0,84,0.00,,,0.02,meteohub,2013-04-18 01:56:00,
2013-04-17 22:01:00,45.7,41.4,30.33,ENE,63,0.0,1.0,85,0.00,,,0.02,meteohub,2013-04-18 02:01:00,
2013-04-17 22:06:00,45.1,40.8,30.34,ENE,64,0.0,1.0,85,0.00,,,0.02,meteohub,2013-04-18 02:06:00,
2013-04-17 22:12:00,45.1,40.8,30.34,NNW,328,0.0,1.0,85,0.00,,,0.02,meteohub,2013-04-18 02:12:00,
2013-04-17 22:17:00,45.0,40.5,30.34,NNW,328,0.0,1.0,84,0.00,,,0.02,meteohub,2013-04-18 02:17:00,
2013-04-17 22:22:00,45.0,40.6,30.34,NNW,328,0.0,1.0,85,0.00,,,0.02,meteohub,2013-04-18 02:22:00,
2013-04-17 22:27:00,45.0,40.6,30.34,NW,322,0.0,1.0,85,0.00,,,0.02,meteohub,2013-04-18 02:27:00,
2013-04-17 22:32:00,45.0,40.6,30.35,NNW,338,0.0,1.0,85,0.00,,,0.02,meteohub,2013-04-18 02:32:00,
2013-04-17 22:37:00,44.8,40.5,30.34,NNW,333,0.0,1.0,85,0.00,,,0.02,meteohub,2013-04-18 02:37:00,
2013-04-17 22:42:00,44.8,40.8,30.34,NW,318,0.0,1.0,86,0.00,,,0.02,meteohub,2013-04-18 02:42:00,
2013-04-17 22:47:00,44.4,40.8,30.34,NW,318,0.0,1.0,87,0.00,,,0.02,meteohub,2013-04-18 02:47:00,
2013-04-17 22:52:00,43.7,40.1,30.34,ENE,73,0.0,0.0,87,0.00,,,0.02,meteohub,2013-04-18 02:52:00,
2013-04-17 22:57:00,43.5,40.3,30.34,East,82,0.0,1.0,88,0.00,,,0.02,meteohub,2013-04-18 02:57:00,
2013-04-17 23:02:00,43.3,40.1,30.34,East,82,0.0,1.0,88,0.00,,,0.02,meteohub,2013-04-18 03:02:00,
2013-04-17 23:07:00,43.2,39.9,30.33,East,82,0.0,1.0,88,0.00,,,0.02,meteohub,2013-04-18 03:07:00,
2013-04-17 23:12:00,43.2,40.1,30.34,East,82,0.0,0.0,89,0.00,,,0.02,meteohub,2013-04-18 03:12:00,
2013-04-17 23:17:00,42.8,39.7,30.34,East,82,0.0,0.0,89,0.00,,,0.02,meteohub,2013-04-18 03:17:00,
2013-04-17 23:22:00,42.6,39.6,30.34,East,82,0.0,0.0,89,0.00,,,0.02,meteohub,2013-04-18 03:22:00,
2013-04-17 23:27:00,42.6,39.9,30.34,WNW,295,0.0,0.0,90,0.00,,,0.02,meteohub,2013-04-18 03:27:00,
2013-04-17 23:32:00,42.6,39.9,30.34,NW,305,0.0,2.0,90,0.00,,,0.02,meteohub,2013-04-18 03:32:00,
2013-04-17 23:37:00,42.6,39.9,30.33,NW,305,0.0,2.0,90,0.00,,,0.02,meteohub,2013-04-18 03:37:00,
2013-04-17 23:42:00,42.4,39.7,30.33,NW,305,0.0,2.0,90,0.00,,,0.02,meteohub,2013-04-18 03:42:00,
2013-04-17 23:47:00,42.3,39.7,30.33,NW,305,0.0,0.0,91,0.00,,,0.02,meteohub,2013-04-18 03:47:00,
2013-04-17 23:52:00,42.1,39.6,30.33,NW,316,0.0,1.0,91,0.00,,,0.02,meteohub,2013-04-18 03:52:00,
2013-04-17 23:57:00,42.1,39.6,30.34,ESE,103,3.0,3.0,91,0.00,,,0.02,meteohub,2013-04-18 03:57:00,